Skip Navigation Links
NOAA logo - Click to go to the NOAA homepage
NOAA's National Weather Service
Alaska Aviation Weather Unit
  NWS logo - Click to go to the NWS homepage
Left Navbar Graphic     19 AKDT = 03 GMT

   
NOAA is celebrating 200 years of science, service, and stewardship. Visit the NOAA 200th celebration Web site to learn more.
USA.gov is the U.S. Government's official Web portal to all Federal, state and local government Web resources and services.
Facebook
NWS on Facebook

Important Change Regarding the AAWU Web Presence

 

Over the last several months, the AAWU has been working to navigate its webpages to a nationally supported server. Security, as well as other needs, have necessitated the change.  In the process, we have made an effort to enhance the functionality of our website, as well as some of our products. As of June 20, 2017, aawu.arh.noaa.gov will be discontinued. The new AAWU web address is weather.gov/aawu. It is now live and will run in-parallel with the old site until it is discontinued. Please send any feedback or questions regarding the new webpages to nws.ar.aawu.webauthors@noaa.gov.  Thank you for your patience during this time of transition.
AAWU Home :: Display TAF Add Bookmark
TESTM WHMA2 242120Z AUTO 09011KT OVC025 12/08 A3007 RMK A02 SLP183 T01220083

TESTM WHMA2 242150Z AUTO 1107KT OVC025 12/09 A3006 RMK A02 SLP178 P0012 T01220089

TESTM WHMA2 242220Z AUTO 10012KT OVC025 12/09 A3005 RMK A02 SLP177 T01230088

TESTM WHMA2 242250Z AUTO 1107KT OVC026 12/09 A3005 RMK A02 SLP176 P0016 T01210089

TESTM WHMA2 242320Z AUTO 1008KT OVC026 12/09 A3005 RMK A02 SLP174 T01220087

TESTM WHMA2 242350Z AUTO 11011KT OVC026 12/09 A3003 RMK A02 SLP169 P0016 T01230088

TESTM WHMA2 250020Z AUTO 11010KT OVC028 13/09 A3003 RMK A02 SLP168 T01260087

TESTM WHMA2 250050Z AUTO 10013KT OVC026 13/09 A3001 RMK A02 SLP163 P0006 T01260089

TESTM WHMA2 250120Z AUTO 09015KT OVC026 13/09 A3001 RMK A02 SLP161 T01260089

TESTM WHMA2 250150Z AUTO 10012KT OVC026 13/09 A3001 RMK A02 SLP162 P0003 T01270090

TESTM WHMA2 250220Z AUTO 1109KT OVC025 12/09 A3000 RMK A02 SLP159 T01250089

TESTM WHMA2 250250Z AUTO 1107KT OVC024 13/09 A3000 RMK A02 SLP158 P0004 T01290093


NOAA's National Weather Service
Alaska Aviation Weather Unit
6930 Sand Lake Road
Anchorage, AK 99502-1845
Disclaimer
Credits
Glossary
Privacy Policy
About Us
Career Opportunities
Contact AAWU Internet Services Site last modified: April, 17th 2012